Time;durP1;ratioP1;P1;durP2;ratioP2;P2;SDS_P1;SDS_P2;PMS_P1;PMS_P2;Temp;Humidity;BMP_temperature;BMP_pressure;BME280_temperature;BME280_humidity;BME280_pressure;Samples;Min_cycle;Max_cycle;Signal;HPM_P1;HPM_P2
2023/07/12 00:00:40;;;;;;;0.00;0.00;;;;;;;23.78;84.48;100861.88;4991571;28;20039;-61
2023/07/12 00:03:06;;;;;;;0.00;0.00;;;;;;;23.84;84.39;100857.06;4991186;28;20033;-64
2023/07/12 00:05:31;;;;;;;0.00;0.00;;;;;;;23.62;85.23;100866.09;4992006;28;20039;-62
2023/07/12 00:07:57;;;;;;;0.00;0.00;;;;;;;23.29;85.67;100857.22;4992334;28;20034;-61
2023/07/12 00:10:26;;;;;;;0.00;0.00;;;;;;;23.68;84.11;100847.56;5007812;28;20430;-61
2023/07/12 00:12:52;;;;;;;0.10;0.10;;;;;;;22.93;87.73;100847.34;4991435;28;20042;-64
2023/07/12 00:15:24;;;;;;;0.00;0.00;;;;;;;22.26;90.61;100846.22;4991469;28;20038;-63
2023/07/12 00:17:51;;;;;;;0.00;0.00;;;;;;;22.03;93.11;100848.00;4991669;28;20113;-65
2023/07/12 00:20:21;;;;;;;0.00;0.00;;;;;;;22.33;92.39;100838.41;4993791;28;20042;-61
2023/07/12 00:22:46;;;;;;;0.00;0.00;;;;;;;22.60;91.02;100849.44;5007168;28;20108;-62
2023/07/12 00:25:12;;;;;;;0.00;0.00;;;;;;;22.16;92.38;100854.63;5001576;28;20073;-61
2023/07/12 00:27:38;;;;;;;0.00;0.00;;;;;;;22.34;91.88;100851.00;5003878;28;20049;-63
2023/07/12 00:30:26;;;;;;;0.00;0.00;;;;;;;22.55;91.30;100850.28;4994279;28;20485;-62
2023/07/12 00:32:53;;;;;;;0.00;0.00;;;;;;;22.54;90.64;100848.66;4978395;28;20026;-63
2023/07/12 00:35:24;;;;;;;0.00;0.00;;;;;;;22.24;92.13;100856.66;4991219;28;20042;-63
2023/07/12 00:37:52;;;;;;;0.00;0.00;;;;;;;22.35;91.49;100858.09;4991868;28;20038;-62
2023/07/12 00:40:48;;;;;;;0.00;0.00;;;;;;;22.34;91.76;100859.22;4991611;28;20042;-61
2023/07/12 00:43:51;;;;;;;0.00;0.00;;;;;;;22.25;92.32;100850.88;4988969;28;20126;-62
2023/07/12 00:46:25;;;;;;;0.00;0.00;;;;;;;22.07;91.71;100857.25;4929869;29;20058;-63
2023/07/12 00:48:50;;;;;;;0.00;0.00;;;;;;;22.23;92.04;100855.03;4925673;29;20075;-62
2023/07/12 00:51:46;;;;;;;0.00;0.00;;;;;;;22.14;92.70;100854.09;4928744;29;20040;-62
2023/07/12 00:54:16;;;;;;;0.00;0.00;;;;;;;21.65;94.22;100860.13;4929266;29;20063;-63
2023/07/12 00:56:42;;;;;;;0.03;0.03;;;;;;;22.11;92.89;100858.25;4930696;29;20074;-61
2023/07/12 00:59:26;;;;;;;0.10;0.10;;;;;;;22.07;93.58;100851.78;4930233;29;20492;-61
2023/07/12 01:02:00;;;;;;;0.00;0.00;;;;;;;22.20;93.03;100859.19;4929941;29;20550;-62
2023/07/12 01:04:35;;;;;;;0.00;0.00;;;;;;;22.29;92.29;100849.16;4930163;29;20046;-62
2023/07/12 01:07:01;;;;;;;0.00;0.00;;;;;;;21.80;93.29;100857.13;4930808;29;20138;-61
2023/07/12 01:09:27;;;;;;;0.03;0.03;;;;;;;22.18;93.50;100869.63;4941181;29;20134;-63
2023/07/12 01:11:54;;;;;;;0.00;0.00;;;;;;;21.99;94.73;100859.84;4935243;29;20127;-60
2023/07/12 01:14:20;;;;;;;0.00;0.00;;;;;;;21.88;95.13;100866.63;4929387;29;20087;-61
2023/07/12 01:16:50;;;;;;;0.00;0.00;;;;;;;21.82;95.41;100866.69;4944352;29;20478;-62
2023/07/12 01:19:15;;;;;;;0.00;0.00;;;;;;;22.22;93.07;100869.84;4948896;29;20048;-62
2023/07/12 01:21:44;;;;;;;0.10;0.10;;;;;;;21.77;94.88;100874.97;4972372;28;20430;-63
2023/07/12 01:24:09;;;;;;;0.00;0.00;;;;;;;21.68;94.26;100874.00;5006623;28;20037;-62
2023/07/12 01:26:37;;;;;;;0.10;0.10;;;;;;;21.91;95.03;100864.09;4994798;28;20017;-61
2023/07/12 01:29:06;;;;;;;0.00;0.00;;;;;;;22.08;93.04;100863.50;5001670;28;20180;-63
2023/07/12 01:31:32;;;;;;;0.00;0.00;;;;;;;21.98;93.49;100864.50;4990024;28;20133;-60
2023/07/12 01:33:58;;;;;;;0.00;0.00;;;;;;;22.01;93.14;100869.41;4990143;28;20092;-63
2023/07/12 01:36:25;;;;;;;0.03;0.03;;;;;;;21.25;96.78;100877.09;4991260;28;20509;-62
2023/07/12 01:38:54;;;;;;;0.00;0.00;;;;;;;21.37;97.44;100881.03;4996883;28;20029;-65
2023/07/12 01:41:19;;;;;;;0.10;0.10;;;;;;;21.68;95.99;100878.66;4999864;28;20479;-63
2023/07/12 01:43:45;;;;;;;0.00;0.00;;;;;;;21.16;97.84;100876.16;4990077;28;20061;-61
2023/07/12 01:46:12;;;;;;;0.00;0.00;;;;;;;21.14;99.04;100887.38;4990092;28;20483;-61
2023/07/12 01:48:37;;;;;;;0.00;0.00;;;;;;;21.51;97.83;100894.78;4990830;28;20147;-60
2023/07/12 01:51:03;;;;;;;0.00;0.00;;;;;;;21.13;98.91;100917.75;5005808;28;20449;-62
2023/07/12 01:53:29;;;;;;;0.10;0.10;;;;;;;21.25;98.61;100951.75;4990441;28;20117;-61
2023/07/12 01:55:55;;;;;;;0.00;0.00;;;;;;;20.52;100.00;100958.56;4990153;28;20125;-62
2023/07/12 01:58:21;;;;;;;0.10;0.10;;;;;;;21.05;100.00;100929.31;4989863;28;20262;-60
2023/07/12 02:00:48;;;;;;;0.10;0.10;;;;;;;20.91;99.40;100889.00;4990984;28;20583;-63
2023/07/12 02:03:15;;;;;;;0.00;0.00;;;;;;;21.01;98.63;100918.19;5002566;28;20069;-61
2023/07/12 02:05:41;;;;;;;0.00;0.00;;;;;;;20.88;98.87;100919.66;5001298;28;20033;-63
2023/07/12 02:08:06;;;;;;;0.10;0.10;;;;;;;20.60;99.89;100897.88;4993354;28;20041;-62
2023/07/12 02:10:32;;;;;;;0.08;0.08;;;;;;;21.48;96.07;100887.19;5007162;28;20033;-63
2023/07/12 02:12:57;;;;;;;0.10;0.10;;;;;;;21.10;95.88;100891.00;5006346;28;20053;-63
2023/07/12 02:15:22;;;;;;;0.10;0.10;;;;;;;21.00;96.88;100911.84;5000901;28;20046;-61
2023/07/12 02:17:48;;;;;;;0.10;0.10;;;;;;;20.86;98.33;100916.41;4994039;28;20022;-61
2023/07/12 02:20:13;;;;;;;0.00;0.00;;;;;;;20.61;98.01;100922.16;4993451;28;20070;-61
2023/07/12 02:22:43;;;;;;;0.10;0.10;;;;;;;20.56;99.51;100881.22;4993253;28;20041;-61
2023/07/12 02:25:10;;;;;;;0.00;0.00;;;;;;;21.01;96.33;100841.66;4992174;28;20038;-61
2023/07/12 02:27:36;;;;;;;0.00;0.00;;;;;;;20.30;99.06;100857.25;4991990;28;20121;-61
2023/07/12 02:30:02;;;;;;;0.10;0.10;;;;;;;20.36;97.85;100847.91;4993909;28;20105;-61
2023/07/12 02:32:28;;;;;;;0.13;0.13;;;;;;;20.70;95.55;100838.47;4996808;28;20041;-61
2023/07/12 02:34:54;;;;;;;0.10;0.10;;;;;;;20.75;96.88;100827.50;5006258;28;20046;-62
2023/07/12 02:37:19;;;;;;;0.10;0.10;;;;;;;20.98;95.83;100821.16;4993120;28;20048;-63
2023/07/12 02:39:45;;;;;;;0.10;0.10;;;;;;;20.40;97.79;100808.78;4993356;28;20074;-62
2023/07/12 02:42:11;;;;;;;0.10;0.10;;;;;;;20.52;97.87;100792.03;4994127;28;20030;-62
2023/07/12 02:44:39;;;;;;;0.10;0.10;;;;;;;20.86;95.74;100768.06;4997422;28;20063;-62
2023/07/12 02:47:06;;;;;;;0.10;0.10;;;;;;;20.62;94.95;100794.59;5003914;28;20394;-61
2023/07/12 02:49:31;;;;;;;0.10;0.10;;;;;;;20.72;96.25;100814.41;4992906;28;20112;-63
2023/07/12 02:51:57;;;;;;;0.10;0.10;;;;;;;20.64;97.51;100793.22;5000945;28;20041;-62
2023/07/12 02:54:22;;;;;;;0.10;0.10;;;;;;;21.00;95.44;100771.69;4992489;28;20037;-62
2023/07/12 02:56:47;;;;;;;0.10;0.10;;;;;;;21.30;93.18;100789.56;4991856;28;20062;-62
2023/07/12 02:59:13;;;;;;;0.10;0.10;;;;;;;20.74;95.21;100787.63;4992831;28;20062;-62
2023/07/12 03:01:38;;;;;;;0.00;0.00;;;;;;;20.45;97.74;100829.75;4993616;28;20157;-63
2023/07/12 03:04:03;;;;;;;0.10;0.10;;;;;;;20.61;96.75;100844.88;5009168;28;20449;-62
2023/07/12 03:06:29;;;;;;;0.00;0.00;;;;;;;20.62;96.49;100846.47;5008903;28;20038;-63
2023/07/12 03:08:54;;;;;;;0.10;0.10;;;;;;;20.67;95.87;100836.34;4999704;28;20026;-63
2023/07/12 03:11:19;;;;;;;0.10;0.10;;;;;;;20.54;95.71;100847.94;5002070;28;20521;-61
2023/07/12 03:13:46;;;;;;;0.10;0.10;;;;;;;20.67;96.44;100854.63;4991937;28;20026;-65
2023/07/12 03:16:11;;;;;;;0.10;0.10;;;;;;;20.68;95.60;100865.25;4992520;28;20254;-62
2023/07/12 03:18:37;;;;;;;0.10;0.10;;;;;;;20.39;95.46;100850.03;4992540;28;20562;-64
2023/07/12 03:21:05;;;;;;;0.00;0.00;;;;;;;20.52;94.53;100844.69;4992405;28;20026;-63
2023/07/12 03:23:32;;;;;;;0.10;0.10;;;;;;;20.77;93.53;100840.84;4992641;28;20045;-64
2023/07/12 03:25:58;;;;;;;0.10;0.10;;;;;;;20.71;94.06;100842.84;4993185;28;20351;-63
2023/07/12 03:28:25;;;;;;;0.10;0.10;;;;;;;20.60;93.76;100863.16;5008490;28;20034;-62
2023/07/12 03:31:05;;;;;;;0.10;0.10;;;;;;;20.37;95.88;100863.97;4992187;28;20129;-64
2023/07/12 03:33:31;;;;;;;0.10;0.10;;;;;;;20.04;96.83;100860.19;4992474;28;20054;-63
2023/07/12 03:35:57;;;;;;;0.10;0.10;;;;;;;20.38;95.59;100862.06;4992706;28;20034;-63
2023/07/12 03:38:25;;;;;;;0.10;0.10;;;;;;;20.25;95.37;100862.72;4995885;28;20042;-61
2023/07/12 03:40:51;;;;;;;0.10;0.10;;;;;;;20.48;95.46;100867.41;5005329;28;20030;-61
2023/07/12 03:43:17;;;;;;;0.00;0.00;;;;;;;19.88;98.09;100871.50;4991424;28;20037;-63
2023/07/12 03:45:43;;;;;;;0.10;0.10;;;;;;;20.48;95.51;100879.13;4991876;28;20180;-63
2023/07/12 03:48:08;;;;;;;0.10;0.10;;;;;;;20.51;95.73;100881.31;5018825;28;20041;-62
2023/07/12 03:50:33;;;;;;;0.10;0.10;;;;;;;20.23;97.39;100887.59;5028531;28;20100;-61
2023/07/12 03:52:59;;;;;;;0.10;0.10;;;;;;;20.29;96.74;100891.06;5031534;28;20052;-62
2023/07/12 03:55:24;;;;;;;0.10;0.10;;;;;;;20.22;96.56;100893.34;5031085;28;20496;-62
2023/07/12 03:57:50;;;;;;;0.10;0.10;;;;;;;19.89;97.60;100897.72;5029311;28;20037;-61
2023/07/12 04:00:15;;;;;;;0.10;0.10;;;;;;;19.95;97.41;100904.75;5029389;28;20029;-61
2023/07/12 04:02:41;;;;;;;0.10;0.10;;;;;;;19.77;98.74;100905.44;5019351;28;20032;-62
2023/07/12 04:05:06;;;;;;;0.10;0.10;;;;;;;19.65;99.41;100900.34;5020425;28;20779;-61
2023/07/12 04:07:32;;;;;;;0.10;0.10;;;;;;;19.96;97.49;100906.38;5030111;28;20057;-63
2023/07/12 04:09:57;;;;;;;0.10;0.10;;;;;;;20.20;97.78;100912.75;5024815;28;20389;-61
2023/07/12 04:12:23;;;;;;;0.10;0.10;;;;;;;20.22;98.02;100909.72;5029915;28;20091;-62
2023/07/12 04:14:48;;;;;;;0.10;0.10;;;;;;;19.96;97.49;100911.81;5031865;28;20030;-61
2023/07/12 04:17:14;;;;;;;0.10;0.10;;;;;;;19.84;98.61;100914.91;5030744;28;20037;-63
2023/07/12 04:19:39;;;;;;;0.10;0.10;;;;;;;20.15;98.28;100912.72;5030287;28;20037;-63
2023/07/12 04:22:04;;;;;;;0.10;0.10;;;;;;;19.82;98.42;100914.38;5012071;28;20053;-63
2023/07/12 04:24:30;;;;;;;0.10;0.10;;;;;;;20.20;96.69;100912.75;5030120;28;20060;-62
2023/07/12 04:26:57;;;;;;;0.10;0.10;;;;;;;20.37;95.08;100910.38;5028086;28;20030;-62
2023/07/12 04:29:22;;;;;;;0.10;0.10;;;;;;;20.60;95.19;100914.25;5030533;28;20042;-63
2023/07/12 04:31:48;;;;;;;0.10;0.10;;;;;;;20.21;95.58;100914.34;5028531;28;20037;-62
2023/07/12 04:34:13;;;;;;;0.10;0.10;;;;;;;20.47;96.14;100913.00;5027719;28;20038;-63
2023/07/12 04:36:39;;;;;;;0.10;0.10;;;;;;;20.25;96.61;100922.78;5028791;28;20037;-62
2023/07/12 04:39:04;;;;;;;0.10;0.10;;;;;;;19.94;98.66;100941.28;5029488;28;20052;-61
2023/07/12 04:41:30;;;;;;;0.10;0.10;;;;;;;19.65;99.45;100937.69;5011240;28;20490;-61
2023/07/12 04:43:55;;;;;;;0.10;0.10;;;;;;;19.91;97.82;100929.03;5024876;28;20041;-61
2023/07/12 04:46:21;;;;;;;0.10;0.10;;;;;;;19.88;98.54;100932.34;5028198;28;20044;-63
2023/07/12 04:48:47;;;;;;;0.00;0.00;;;;;;;19.86;98.44;100933.72;5030062;28;20041;-65
2023/07/12 04:51:13;;;;;;;0.13;0.13;;;;;;;20.11;97.76;100926.16;5028177;28;20488;-63
2023/07/12 04:53:38;;;;;;;0.10;0.10;;;;;;;20.15;96.84;100919.00;5030943;28;20017;-61
2023/07/12 04:56:04;;;;;;;0.10;0.10;;;;;;;20.20;96.79;100922.84;5028005;28;20034;-62
2023/07/12 04:58:29;;;;;;;0.08;0.08;;;;;;;20.20;97.06;100929.13;5026261;28;20309;-60
2023/07/12 05:00:55;;;;;;;0.10;0.10;;;;;;;20.15;98.38;100919.00;5029893;28;20072;-64
2023/07/12 05:03:20;;;;;;;0.10;0.10;;;;;;;20.85;95.09;100922.94;5026742;28;20493;-65
2023/07/12 05:05:46;;;;;;;0.10;0.10;;;;;;;20.71;94.81;100922.03;5030081;28;20029;-63
2023/07/12 05:08:12;;;;;;;0.10;0.10;;;;;;;20.27;96.95;100931.50;5027564;28;20046;-61
2023/07/12 05:10:37;;;;;;;0.10;0.10;;;;;;;20.54;96.62;100929.06;5027721;28;20142;-60
2023/07/12 05:13:03;;;;;;;0.10;0.10;;;;;;;20.64;96.65;100942.59;5029424;28;20449;-61
2023/07/12 05:15:28;;;;;;;0.00;0.00;;;;;;;20.67;95.33;100942.84;5033741;28;20033;-61
2023/07/12 05:17:54;;;;;;;0.08;0.08;;;;;;;20.55;95.65;100947.06;5029818;28;20088;-63
2023/07/12 05:20:19;;;;;;;0.10;0.10;;;;;;;20.21;96.98;100944.38;5029103;28;20540;-61
2023/07/12 05:22:47;;;;;;;0.10;0.10;;;;;;;20.52;95.90;100955.84;5029213;28;20041;-62
2023/07/12 05:25:13;;;;;;;0.10;0.10;;;;;;;20.55;96.11;100952.53;5029381;28;20033;-64
2023/07/12 05:27:39;;;;;;;0.00;0.00;;;;;;;20.62;96.21;100952.97;5029655;28;20459;-60
2023/07/12 05:30:05;;;;;;;0.05;0.05;;;;;;;20.27;97.24;100958.78;5029357;28;20017;-62
2023/07/12 05:32:30;;;;;;;0.10;0.10;;;;;;;20.33;96.65;100963.91;5019401;28;20017;-63
2023/07/12 05:34:56;;;;;;;0.10;0.10;;;;;;;20.11;97.46;100960.78;5028747;28;20512;-61
2023/07/12 05:37:22;;;;;;;0.00;0.00;;;;;;;20.28;97.49;100960.44;5009857;28;20048;-59
2023/07/12 05:39:48;;;;;;;0.10;0.10;;;;;;;20.25;96.24;100959.06;5028460;28;20038;-61
2023/07/12 05:42:13;;;;;;;0.10;0.10;;;;;;;20.28;96.20;100960.44;5027816;28;20072;-62
2023/07/12 05:44:39;;;;;;;0.03;0.03;;;;;;;20.39;96.39;100968.22;5010479;28;20036;-62
2023/07/12 05:47:05;;;;;;;0.10;0.10;;;;;;;20.28;96.32;100966.72;5027954;28;20069;-61
2023/07/12 05:49:31;;;;;;;0.05;0.05;;;;;;;20.35;96.69;100969.91;5027996;28;20489;-61
2023/07/12 05:51:56;;;;;;;0.10;0.10;;;;;;;20.71;95.12;100970.38;5028136;28;20037;-61
2023/07/12 05:54:22;;;;;;;0.00;0.00;;;;;;;20.67;94.85;100966.59;5027747;28;20041;-61
2023/07/12 05:56:47;;;;;;;0.10;0.10;;;;;;;20.65;94.61;100968.81;5028945;28;20018;-62
2023/07/12 05:59:14;;;;;;;0.00;0.00;;;;;;;20.34;96.24;100973.75;5028851;28;20030;-60
2023/07/12 06:01:39;;;;;;;0.10;0.10;;;;;;;20.32;95.54;100975.94;5028421;28;20034;-62
2023/07/12 06:04:08;;;;;;;0.10;0.10;;;;;;;20.31;95.04;100977.03;5029005;28;20538;-61
2023/07/12 06:06:33;;;;;;;0.10;0.10;;;;;;;20.29;94.95;100973.78;5029563;28;20034;-61
2023/07/12 06:08:59;;;;;;;0.03;0.03;;;;;;;20.60;94.70;100963.41;5027807;28;20014;-61
2023/07/12 06:11:24;;;;;;;0.05;0.05;;;;;;;20.25;94.97;100971.91;5028357;28;20021;-61
2023/07/12 06:13:49;;;;;;;0.10;0.10;;;;;;;20.27;93.74;100975.16;5026253;28;20147;-63
2023/07/12 06:16:15;;;;;;;0.10;0.10;;;;;;;20.77;93.09;100972.78;5027971;28;20416;-61
2023/07/12 06:18:40;;;;;;;0.10;0.10;;;;;;;20.26;94.17;100970.81;5028540;28;20049;-63
2023/07/12 06:21:09;;;;;;;0.10;0.10;;;;;;;20.77;92.88;100969.22;5029052;28;20466;-63
2023/07/12 06:23:35;;;;;;;0.00;0.00;;;;;;;20.86;92.03;100975.69;5029455;28;20457;-62
2023/07/12 06:26:00;;;;;;;0.10;0.10;;;;;;;20.53;92.32;100990.22;5028225;28;20041;-62
2023/07/12 06:28:26;;;;;;;0.10;0.10;;;;;;;20.22;95.26;100978.75;5028299;28;20052;-61
2023/07/12 06:30:52;;;;;;;0.10;0.10;;;;;;;20.71;93.64;100992.25;5028687;28;20523;-63
2023/07/12 06:33:17;;;;;;;0.10;0.10;;;;;;;20.51;94.14;100995.16;5028268;28;20075;-61
2023/07/12 06:35:43;;;;;;;0.10;0.10;;;;;;;20.80;93.02;101002.25;5028884;28;20026;-61
2023/07/12 06:38:08;;;;;;;0.10;0.10;;;;;;;21.17;89.89;101009.78;5029299;28;20034;-62
2023/07/12 06:40:34;;;;;;;0.10;0.10;;;;;;;20.79;92.86;101005.25;5027813;28;20049;-61
2023/07/12 06:42:59;;;;;;;0.08;0.08;;;;;;;20.90;91.44;101018.53;5027838;28;20404;-62
2023/07/12 06:45:25;;;;;;;0.00;0.00;;;;;;;21.34;89.15;101009.31;5028825;28;20117;-62
2023/07/12 06:47:50;;;;;;;0.00;0.00;;;;;;;20.95;90.59;101021.19;5028973;28;20049;-61
2023/07/12 06:50:15;;;;;;;0.00;0.00;;;;;;;20.82;90.61;101032.00;5031753;28;20555;-60
2023/07/12 06:52:41;;;;;;;0.00;0.00;;;;;;;21.05;89.08;101027.72;5032321;28;20464;-62
2023/07/12 06:55:07;;;;;;;0.00;0.00;;;;;;;21.06;89.14;101032.06;5031946;28;20037;-62
2023/07/12 06:57:35;;;;;;;0.10;0.10;;;;;;;21.33;88.26;101022.16;5031565;28;20025;-62
2023/07/12 07:00:06;;;;;;;0.10;0.10;;;;;;;21.71;88.13;101036.72;5032399;28;20052;-64
2023/07/12 07:02:32;;;;;;;0.00;0.00;;;;;;;21.70;87.77;101037.81;5049756;28;20021;-62
2023/07/12 07:04:58;;;;;;;0.00;0.00;;;;;;;21.28;88.70;101022.25;5033991;28;20035;-62
2023/07/12 07:07:23;;;;;;;0.00;0.00;;;;;;;21.23;88.61;101022.28;5042496;28;20090;-62
2023/07/12 07:09:48;;;;;;;0.10;0.10;;;;;;;21.37;88.47;101016.94;5030095;28;20045;-66
2023/07/12 07:12:14;;;;;;;0.05;0.05;;;;;;;21.57;87.23;101014.75;5012694;28;20022;-62
2023/07/12 07:14:40;;;;;;;0.05;0.05;;;;;;;21.36;88.31;101018.88;5016691;28;20026;-63
2023/07/12 07:17:06;;;;;;;0.00;0.00;;;;;;;21.10;89.54;101039.41;5037587;28;20038;-61
2023/07/12 07:19:32;;;;;;;0.00;0.00;;;;;;;21.34;89.64;101042.94;5041626;28;20033;-63
2023/07/12 07:21:57;;;;;;;0.05;0.05;;;;;;;21.40;87.34;101028.13;5041675;28;20422;-62
2023/07/12 07:24:23;;;;;;;0.00;0.00;;;;;;;21.67;86.78;101046.63;5016869;28;20037;-62
2023/07/12 07:26:48;;;;;;;0.00;0.00;;;;;;;21.73;85.57;101029.03;5031703;28;20535;-62
2023/07/12 07:29:14;;;;;;;0.00;0.00;;;;;;;22.47;84.26;101030.94;5027458;28;20037;-63
2023/07/12 07:31:39;;;;;;;0.00;0.00;;;;;;;21.75;85.81;101041.34;5009565;28;20042;-61
2023/07/12 07:34:04;;;;;;;0.00;0.00;;;;;;;22.33;84.84;101035.56;5012613;28;20404;-63
2023/07/12 07:36:30;;;;;;;0.00;0.00;;;;;;;22.48;83.50;101025.19;5030780;28;20034;-62
2023/07/12 07:38:55;;;;;;;0.10;0.10;;;;;;;22.70;81.82;101027.31;5031129;28;20029;-62
2023/07/12 07:41:21;;;;;;;0.00;0.00;;;;;;;22.50;82.31;101028.44;5031065;28;20052;-61
2023/07/12 07:43:46;;;;;;;0.00;0.00;;;;;;;22.64;82.63;101034.78;5031551;28;20565;-62
2023/07/12 07:46:13;;;;;;;0.00;0.00;;;;;;;22.62;82.85;101045.22;5036346;28;20048;-61
2023/07/12 07:48:38;;;;;;;0.00;0.00;;;;;;;22.31;83.45;101049.56;5038006;28;20044;-61
2023/07/12 07:51:06;;;;;;;0.00;0.00;;;;;;;22.63;82.09;101046.06;5031616;28;20125;-62
2023/07/12 07:53:31;;;;;;;0.00;0.00;;;;;;;22.45;82.13;101055.09;5031785;28;20515;-61
2023/07/12 07:55:57;;;;;;;0.00;0.00;;;;;;;22.57;81.24;101050.81;5030559;28;20038;-61
2023/07/12 07:58:22;;;;;;;0.05;0.05;;;;;;;22.35;81.46;101057.97;5031328;28;20374;-60
2023/07/12 08:00:47;;;;;;;0.10;0.10;;;;;;;22.61;81.49;101054.56;5030914;28;20156;-62
2023/07/12 08:03:13;;;;;;;0.00;0.00;;;;;;;22.77;82.27;101052.38;5026930;28;20025;-63
2023/07/12 08:05:39;;;;;;;0.00;0.00;;;;;;;22.43;81.33;101057.31;5026930;28;20026;-61
2023/07/12 08:08:05;;;;;;;0.00;0.00;;;;;;;22.91;79.55;101064.19;5029949;28;20405;-61
2023/07/12 08:10:32;;;;;;;0.00;0.00;;;;;;;22.45;81.20;101069.59;5029060;28;20215;-62
2023/07/12 08:12:58;;;;;;;0.00;0.00;;;;;;;22.04;83.51;101079.53;5029700;28;20045;-63
2023/07/12 08:15:24;;;;;;;0.00;0.00;;;;;;;22.33;83.08;101080.19;5030083;28;20528;-61
2023/07/12 08:17:49;;;;;;;0.00;0.00;;;;;;;22.48;81.47;101077.22;5029995;28;20021;-61
2023/07/12 08:20:15;;;;;;;0.00;0.00;;;;;;;23.21;78.05;101088.28;5029388;28;20664;-62
2023/07/12 08:22:40;;;;;;;0.00;0.00;;;;;;;22.70;80.36;101084.84;5026129;28;20034;-63
2023/07/12 08:25:06;;;;;;;0.00;0.00;;;;;;;22.83;79.26;101084.06;5029222;28;20025;-63
2023/07/12 08:27:32;;;;;;;0.00;0.00;;;;;;;22.70;81.07;101082.91;5027050;28;20041;-63
2023/07/12 08:29:59;;;;;;;0.00;0.00;;;;;;;22.99;79.41;101085.44;5028978;28;20473;-61
2023/07/12 08:32:27;;;;;;;0.00;0.00;;;;;;;23.47;78.50;101083.97;5030829;28;20033;-62
2023/07/12 08:34:53;;;;;;;0.00;0.00;;;;;;;23.36;77.76;101089.97;5030256;28;20037;-62
2023/07/12 08:37:19;;;;;;;0.00;0.00;;;;;;;22.34;79.78;101083.75;5035343;28;20389;-63
2023/07/12 08:39:44;;;;;;;0.00;0.00;;;;;;;23.09;78.50;101078.94;5038613;28;20036;-62
2023/07/12 08:42:13;;;;;;;0.00;0.00;;;;;;;22.80;79.85;101084.66;5041313;28;20091;-61
2023/07/12 08:44:39;;;;;;;0.00;0.00;;;;;;;22.64;78.90;101088.78;5034519;28;20026;-62
2023/07/12 08:47:10;;;;;;;0.00;0.00;;;;;;;23.57;78.41;101082.97;5030351;28;20451;-61
2023/07/12 08:49:36;;;;;;;0.00;0.00;;;;;;;23.20;77.14;101085.84;5029924;28;20033;-60
2023/07/12 08:52:02;;;;;;;0.00;0.00;;;;;;;23.68;75.83;101094.56;5035967;28;20119;-62
2023/07/12 08:54:35;;;;;;;0.00;0.00;;;;;;;23.02;79.32;101094.97;5040110;28;20029;-61
2023/07/12 08:57:17;;;;;;;0.00;0.00;;;;;;;23.45;76.81;101090.88;5038681;28;20392;-61
2023/07/12 08:59:47;;;;;;;0.00;0.00;;;;;;;23.21;78.69;101084.75;5040750;28;20040;-62
2023/07/12 09:02:20;;;;;;;0.00;0.00;;;;;;;23.67;74.82;101085.50;5038235;28;20040;-64
2023/07/12 09:04:45;;;;;;;0.00;0.00;;;;;;;24.17;73.25;101087.19;5038903;28;20029;-64
2023/07/12 09:07:11;;;;;;;0.00;0.00;;;;;;;24.51;73.66;101081.13;5040518;28;20067;-61
2023/07/12 09:09:38;;;;;;;0.00;0.00;;;;;;;23.80;73.81;101084.69;5022957;28;20090;-63
2023/07/12 09:12:07;;;;;;;0.00;0.00;;;;;;;24.14;72.72;101086.97;5028397;28;20532;-61
2023/07/12 09:14:35;;;;;;;0.00;0.00;;;;;;;23.87;72.16;101082.31;5027639;28;20021;-63
2023/07/12 09:17:02;;;;;;;0.00;0.00;;;;;;;24.10;72.64;101088.69;5029796;28;20037;-60
2023/07/12 09:19:36;;;;;;;0.00;0.00;;;;;;;23.21;76.78;101082.81;5031099;28;20041;-62
2023/07/12 09:22:13;;;;;;;0.00;0.00;;;;;;;22.64;82.15;101099.75;5031386;28;20108;-64
2023/07/12 09:24:46;;;;;;;0.00;0.00;;;;;;;21.95;87.41;101116.88;5033182;28;20042;-63
2023/07/12 09:27:17;;;;;;;0.00;0.00;;;;;;;21.83;90.08;101122.78;5035668;28;20033;-61
2023/07/12 09:29:43;;;;;;;0.00;0.00;;;;;;;22.45;88.74;101110.69;5034589;28;20045;-64
2023/07/12 09:32:41;;;;;;;0.00;0.00;;;;;;;22.11;91.21;101115.56;5035952;28;20493;-61
2023/07/12 09:35:21;;;;;;;0.00;0.00;;;;;;;22.23;89.00;101115.94;4939879;29;20050;-61
2023/07/12 09:37:56;;;;;;;0.00;0.00;;;;;;;22.35;89.80;101124.53;4939053;29;20044;-62
2023/07/12 09:40:21;;;;;;;0.00;0.00;;;;;;;21.58;90.56;101135.94;4931613;29;20036;-61
2023/07/12 09:42:48;;;;;;;0.00;0.00;;;;;;;21.90;91.07;101113.38;4934680;28;20818;-61
2023/07/12 09:45:13;;;;;;;0.00;0.00;;;;;;;22.73;87.67;101108.06;4934841;28;20081;-63
2023/07/12 09:47:44;;;;;;;0.10;0.10;;;;;;;22.16;87.30;101120.97;4933385;29;20047;-63
2023/07/12 09:50:14;;;;;;;0.00;0.00;;;;;;;22.05;88.41;101119.50;4939680;28;20403;-63
2023/07/12 09:52:52;;;;;;;;;;;;;;;21.82;88.50;101128.53;4939119;29;20039;-63
2023/07/12 09:55:24;;;;;;;0.10;0.10;;;;;;;22.10;87.99;101132.28;4937600;29;19923;-60
2023/07/12 09:58:10;;;;;;;0.00;0.00;;;;;;;22.04;87.40;101127.97;4938143;29;20367;-64
2023/07/12 10:00:46;;;;;;;0.00;0.00;;;;;;;21.85;87.06;101138.91;4936744;28;20070;-61
2023/07/12 10:03:15;;;;;;;0.00;0.00;;;;;;;22.44;85.48;101136.47;4943487;28;20039;-61
2023/07/12 10:06:05;;;;;;;0.00;0.00;;;;;;;22.74;85.01;101127.00;4945824;29;20062;-61
2023/07/12 10:09:01;;;;;;;0.00;0.00;;;;;;;23.31;81.91;101139.44;4947185;29;20058;-66
2023/07/12 10:11:31;;;;;;;0.00;0.00;;;;;;;22.52;84.45;101121.28;4977040;28;20046;-61
2023/07/12 10:13:58;;;;;;;;;;;;;;;22.49;83.65;101128.16;5010575;28;20030;-62
2023/07/12 10:16:34;;;;;;;0.00;0.00;;;;;;;22.62;83.74;101126.63;5027863;28;19921;-63
2023/07/12 10:19:05;;;;;;;0.00;0.00;;;;;;;22.64;84.17;101138.91;5031472;28;20087;-61
2023/07/12 10:21:31;;;;;;;;;;;;;;;22.15;85.77;101149.44;5025495;28;20563;-64
2023/07/12 10:24:01;;;;;;;0.00;0.00;;;;;;;22.12;87.65;101143.75;5012568;28;19936;-61
2023/07/12 10:26:27;;;;;;;0.00;0.00;;;;;;;22.37;85.19;101148.88;5025906;28;20072;-63
2023/07/12 10:29:05;;;;;;;0.00;0.00;;;;;;;23.46;81.92;101145.47;5038824;28;20033;-62
2023/07/12 10:31:55;;;;;;;0.00;0.00;;;;;;;23.58;81.27;101144.13;5035220;28;20366;-63
2023/07/12 10:34:27;;;;;;;0.00;0.00;;;;;;;23.37;80.61;101141.78;5042477;28;20042;-63
2023/07/12 10:36:55;;;;;;;0.00;0.00;;;;;;;23.96;79.66;101132.63;5034256;28;20037;-62
2023/07/12 10:39:26;;;;;;;0.00;0.00;;;;;;;23.50;76.94;101130.03;5032661;28;20029;-63
2023/07/12 10:42:07;;;;;;;0.00;0.00;;;;;;;23.56;74.95;101136.22;5034202;28;20041;-63
2023/07/12 10:44:40;;;;;;;0.00;0.00;;;;;;;23.25;76.74;101133.19;5037687;28;20418;-61
2023/07/12 10:47:15;;;;;;;0.00;0.00;;;;;;;23.35;77.78;101140.47;5031621;28;20120;-64
2023/07/12 10:49:41;;;;;;;0.00;0.00;;;;;;;23.67;75.98;101145.88;5040227;28;20025;-62
2023/07/12 10:52:09;;;;;;;0.00;0.00;;;;;;;23.80;75.70;101141.50;5051623;28;20124;-63
2023/07/12 10:54:34;;;;;;;0.10;0.10;;;;;;;24.03;75.49;101143.25;5046914;28;20473;-63
2023/07/12 10:57:28;;;;;;;0.00;0.00;;;;;;;24.24;73.32;101149.91;5031869;28;20179;-63
2023/07/12 11:00:24;;;;;;;0.00;0.00;;;;;;;24.21;73.26;101145.88;5027257;28;20568;-62
2023/07/12 11:03:15;;;;;;;0.00;0.00;;;;;;;24.08;72.88;101159.59;4976314;28;20038;-65
2023/07/12 11:06:04;;;;;;;0.00;0.00;;;;;;;23.62;72.43;101159.69;4982831;28;20066;-64
2023/07/12 11:08:32;;;;;;;0.00;0.00;;;;;;;23.55;72.53;101162.84;4983535;28;20463;-62
2023/07/12 11:11:00;;;;;;;0.00;0.00;;;;;;;23.66;70.82;101163.47;4978481;28;20026;-63
2023/07/12 11:13:32;;;;;;;0.00;0.00;;;;;;;24.62;68.95;101164.97;4974225;28;20042;-63
2023/07/12 11:16:20;;;;;;;0.00;0.00;;;;;;;24.46;69.27;101165.63;4960222;28;20126;-64
2023/07/12 11:18:54;;;;;;;0.00;0.00;;;;;;;24.44;69.68;101157.69;4975548;28;20404;-64
2023/07/12 11:21:39;;;;;;;0.00;0.00;;;;;;;23.82;70.16;101162.03;4980870;28;20045;-63
2023/07/12 11:24:25;;;;;;;0.00;0.00;;;;;;;24.67;70.68;101173.09;4974782;28;20042;-62
2023/07/12 11:26:55;;;;;;;0.00;0.00;;;;;;;25.77;66.52;101165.88;4975332;28;20541;-63
2023/07/12 11:29:35;;;;;;;0.00;0.00;;;;;;;25.49;64.55;101165.31;4976551;28;20046;-62
2023/07/12 11:32:19;;;;;;;;;;;;;;;25.51;63.06;101160.28;4969167;28;20070;-62